MMSD/SJD METAR and TAF weather

Enter ICAO airport designator
Station Type Date Time Source
MMSD METAR 2020/09/27 02:45 UTC NOAA

MMSD 270245Z 13008KT 12SM SKC 28/22 A2986 RMK SLP093 52015 969 SC AC


Station Type Date Time Source
MMSD Decoded METAR 2020/09/27 02:45 UTC NOAA

San Jose Del Cabo , Mexico (MMSD) 23-09N 109-42W
Sep 26, 2020 - 10:45 PM EDT / 2020.09.27 0245 UTC
Wind: from the SE (130 degrees) at 9 MPH (8 KT):0
Visibility: 12 mile(s):0
Sky conditions: clear
Temperature: 82 F (28 C)
Dew Point: 71 F (22 C)
Relative Humidity: 69%
Pressure (altimeter): 29.86 in. Hg (1011 hPa)
Pressure tendency: 0.04 inches (1.5 hPa) higher than three hours ago
ob: MMSD 270245Z 13008KT 12SM SKC 28/22 A2986 RMK SLP093 52015 969 SC AC
cycle: 3

Station Type Date Time Source
MMSD TAF 2020/09/26 18:09 UTC NOAA

TAF MMSD 261602Z 2618/2718 24005KT P6SM SCT030
TEMPO 2622/2702 5SM RA BKN030CB
FM270600 24005KT P6SM SCT040
FM271200 00000KT P6SM SKC

Example: see airport list